createdAt,value
2022-08-03T00:00:31.639Z,160624.06
2022-08-03T00:03:05.658Z,160612.00
2022-08-03T00:05:33.911Z,160609.34
2022-08-03T00:08:01.988Z,160598.59
2022-08-03T00:10:30.506Z,160581.22
2022-08-03T00:12:57.835Z,160577.19
2022-08-03T00:15:26.425Z,160559.81
2022-08-03T00:17:54.688Z,160574.53
2022-08-03T00:20:23.597Z,160571.81
2022-08-03T00:22:52.154Z,160520.97
2022-08-03T00:25:19.909Z,160541.06
2022-08-03T00:27:48.362Z,160542.38
2022-08-03T00:30:18.179Z,160537.00
2022-08-03T00:32:45.734Z,160542.38
2022-08-03T00:35:26.633Z,160531.69
2022-08-03T00:38:02.122Z,160537.00
2022-08-03T00:40:30.695Z,160530.31
2022-08-03T00:43:00.186Z,160516.94
2022-08-03T00:45:33.234Z,160512.94
2022-08-03T00:48:00.814Z,160488.88
2022-08-03T00:50:30.392Z,160468.78
2022-08-03T00:52:59.761Z,160470.13
2022-08-03T00:55:27.731Z,160464.75
2022-08-03T00:57:56.910Z,160470.13
2022-08-03T01:00:26.340Z,160466.06
2022-08-03T01:02:54.456Z,160448.69
2022-08-03T01:05:22.211Z,160456.72
2022-08-03T01:07:55.499Z,160459.38
2022-08-03T01:10:34.115Z,160450.03
2022-08-03T01:13:13.962Z,160448.69
2022-08-03T01:16:37.271Z,160439.34
2022-08-03T01:19:48.475Z,160428.63
2022-08-03T01:22:35.516Z,160427.28
2022-08-03T01:25:19.895Z,160428.63
2022-08-03T01:28:18.260Z,160409.88
2022-08-03T01:30:46.924Z,160392.50
2022-08-03T01:33:28.599Z,160405.88
2022-08-03T01:36:02.167Z,160389.78
2022-08-03T01:38:33.862Z,160381.75
2022-08-03T01:41:25.757Z,160381.75
2022-08-03T01:44:26.485Z,160379.06
2022-08-03T01:46:47.546Z,160365.66
2022-08-03T01:49:18.378Z,160367.00
2022-08-03T01:52:04.173Z,160368.31
2022-08-03T01:54:39.695Z,160357.66
2022-08-03T01:57:08.878Z,160355.00
2022-08-03T01:59:37.834Z,160345.59
2022-08-03T02:02:19.505Z,160329.53
2022-08-03T02:04:57.023Z,160320.19
2022-08-03T02:07:27.091Z,160344.25
2022-08-03T02:09:56.656Z,160341.59
2022-08-03T02:12:26.039Z,160342.94
2022-08-03T02:14:54.569Z,160344.25
2022-08-03T02:17:39.743Z,160338.91
2022-08-03T02:20:12.898Z,160325.50
2022-08-03T02:22:42.492Z,160297.41
2022-08-03T02:25:14.499Z,160312.19
2022-08-03T02:28:06.945Z,160318.81
2022-08-03T02:30:39.117Z,160317.50
2022-08-03T02:33:18.563Z,160292.09
2022-08-03T02:35:47.651Z,160297.41
2022-08-03T02:38:19.174Z,160289.41
2022-08-03T02:40:47.449Z,160286.75
2022-08-03T02:43:19.070Z,160285.41
2022-08-03T02:45:49.904Z,160277.38
2022-08-03T02:48:30.496Z,160282.69
2022-08-03T02:51:00.203Z,160286.75
2022-08-03T02:53:28.577Z,160297.41
2022-08-03T02:55:55.992Z,160294.75
2022-08-03T02:58:24.113Z,160290.72
2022-08-03T03:00:52.800Z,160301.44
2022-08-03T03:03:21.464Z,160292.09
2022-08-03T03:05:53.733Z,160274.69
2022-08-03T03:08:28.386Z,160293.44
2022-08-03T03:10:58.885Z,160301.44
2022-08-03T03:13:28.688Z,160306.81
2022-08-03T03:15:58.085Z,160284.09
2022-08-03T03:18:26.138Z,160317.50
2022-08-03T03:20:54.005Z,160328.22
2022-08-03T03:23:22.973Z,160326.88
2022-08-03T03:25:51.709Z,160355.00
2022-08-03T03:28:19.743Z,160371.03
2022-08-03T03:30:52.815Z,160380.38
2022-08-03T03:33:22.894Z,160400.50
2022-08-03T03:35:52.117Z,160408.53
2022-08-03T03:38:20.222Z,160419.25
2022-08-03T03:40:48.269Z,160419.25
2022-08-03T03:43:15.898Z,160427.28
2022-08-03T03:45:43.723Z,160456.72
2022-08-03T03:48:12.044Z,160470.13
2022-08-03T03:50:41.161Z,160484.81
2022-08-03T03:53:14.609Z,160487.50
2022-08-03T03:55:57.861Z,160503.59
2022-08-03T03:58:32.373Z,160526.31
2022-08-03T04:01:01.978Z,160535.69
2022-08-03T04:03:30.001Z,160561.13
2022-08-03T04:06:16.750Z,160583.88
2022-08-03T04:09:04.447Z,160598.59
2022-08-03T04:11:42.708Z,160626.72
2022-08-03T04:14:13.681Z,160649.47
2022-08-03T04:16:44.133Z,160673.59
2022-08-03T04:19:23.091Z,160707.09
2022-08-03T04:21:53.732Z,160727.19
2022-08-03T04:24:29.903Z,160782.13
2022-08-03T04:26:58.780Z,160822.31
2022-08-03T04:29:27.423Z,160875.88
2022-08-03T04:31:55.350Z,160926.78
2022-08-03T04:34:23.792Z,160961.63
2022-08-03T04:36:56.118Z,160981.78
2022-08-03T04:39:32.497Z,160989.81
2022-08-03T04:42:08.105Z,161000.56
2022-08-03T04:44:39.467Z,161032.69
2022-08-03T04:47:08.605Z,161058.19
2022-08-03T04:49:40.472Z,161086.34
2022-08-03T04:52:10.207Z,161110.44
2022-08-03T04:54:42.673Z,161130.56
2022-08-03T04:57:22.519Z,161142.63
2022-08-03T05:00:01.722Z,161145.28
2022-08-03T05:02:31.572Z,161146.69
2022-08-03T05:04:59.264Z,161150.66
2022-08-03T05:07:29.330Z,161154.72
2022-08-03T05:10:14.938Z,161164.09
2022-08-03T05:12:46.884Z,161170.78
2022-08-03T05:15:15.163Z,161185.53
2022-08-03T05:17:43.021Z,161215.03
2022-08-03T05:20:11.151Z,161249.94
2022-08-03T05:22:39.160Z,161278.09
2022-08-03T05:25:07.243Z,161300.88
2022-08-03T05:27:34.789Z,161323.72
2022-08-03T05:30:30.789Z,161359.94
2022-08-03T05:32:49.797Z,161400.13
2022-08-03T05:35:56.123Z,161421.59
2022-08-03T05:38:05.298Z,161445.78
2022-08-03T05:40:33.802Z,161453.81
2022-08-03T05:43:02.138Z,161459.19
2022-08-03T05:45:29.899Z,161447.09
2022-08-03T05:47:57.612Z,161451.16
2022-08-03T05:50:25.379Z,161472.63
2022-08-03T05:52:57.961Z,161494.13
2022-08-03T05:55:26.624Z,161477.94
2022-08-03T05:57:56.701Z,161539.72
2022-08-03T06:00:25.729Z,161604.13
2022-08-03T06:02:53.764Z,161667.22
2022-08-03T06:05:21.439Z,161715.53
2022-08-03T06:07:48.781Z,161730.34
2022-08-03T06:10:36.157Z,161769.25
2022-08-03T06:13:05.709Z,161813.59
2022-08-03T06:15:35.841Z,161875.34
2022-08-03T06:18:03.593Z,161912.97
2022-08-03T06:20:31.471Z,161916.97
2022-08-03T06:23:00.990Z,161906.25
2022-08-03T06:25:29.620Z,161898.19
2022-08-03T06:27:57.262Z,161882.06
2022-08-03T06:30:26.075Z,161855.22
2022-08-03T06:32:53.293Z,161839.09
2022-08-03T06:35:21.363Z,161836.41
2022-08-03T06:37:50.380Z,161841.81
2022-08-03T06:40:24.346Z,161841.81
2022-08-03T06:42:53.350Z,161831.03
2022-08-03T06:45:21.380Z,161800.16
2022-08-03T06:47:49.774Z,161813.59
2022-08-03T06:50:22.937Z,161844.47
2022-08-03T06:52:55.035Z,161856.56
2022-08-03T06:55:22.773Z,161843.13
2022-08-03T06:57:51.324Z,161875.34
2022-08-03T07:00:19.619Z,161968.03
2022-08-03T07:02:51.057Z,162059.38
2022-08-03T07:05:21.571Z,162160.19
2022-08-03T07:07:49.897Z,162261.00
2022-08-03T07:10:17.514Z,162391.44
2022-08-03T07:12:55.836Z,162507.03
2022-08-03T07:15:55.110Z,162551.44
2022-08-03T07:18:13.365Z,162521.88
2022-08-03T07:20:41.195Z,162528.56
2022-08-03T07:23:10.118Z,162554.13
2022-08-03T07:25:43.952Z,162574.31
2022-08-03T07:28:11.672Z,162593.16
2022-08-03T07:30:39.324Z,162608.00
2022-08-03T07:33:07.037Z,162571.63
2022-08-03T07:35:34.664Z,162547.41
2022-08-03T07:38:02.861Z,162521.88
2022-08-03T07:40:31.954Z,162528.56
2022-08-03T07:43:00.156Z,162564.91
2022-08-03T07:45:28.062Z,162605.28
2022-08-03T07:47:55.769Z,162657.75
2022-08-03T07:50:23.473Z,162677.94
2022-08-03T07:52:56.203Z,162723.66
2022-08-03T07:55:25.582Z,162821.94
2022-08-03T07:58:18.170Z,162928.25
2022-08-03T08:00:53.781Z,163042.69
2022-08-03T08:03:25.151Z,163104.63
2022-08-03T08:05:53.883Z,163201.59
2022-08-03T08:08:22.594Z,163295.84
2022-08-03T08:10:56.628Z,163388.88
2022-08-03T08:13:27.095Z,163448.13
2022-08-03T08:15:55.395Z,163452.16
2022-08-03T08:18:29.684Z,163502.00
2022-08-03T08:20:57.612Z,163592.34
2022-08-03T08:23:41.964Z,163657.03
2022-08-03T08:26:13.448Z,163682.66
2022-08-03T08:28:41.756Z,163650.28
2022-08-03T08:31:09.144Z,163692.09
2022-08-03T08:34:02.506Z,163739.34
2022-08-03T08:36:26.448Z,163805.38
2022-08-03T08:38:54.228Z,163863.34
2022-08-03T08:41:22.854Z,163882.28
2022-08-03T08:43:50.600Z,163876.88
2022-08-03T08:46:23.813Z,163817.53
2022-08-03T08:48:53.273Z,163763.56
2022-08-03T08:51:23.834Z,163715.03
2022-08-03T08:54:11.725Z,163716.44
2022-08-03T08:56:40.878Z,163744.72
2022-08-03T08:59:09.286Z,163779.72
2022-08-03T09:01:37.049Z,163773.03
2022-08-03T09:04:10.126Z,163774.38
2022-08-03T09:06:38.060Z,163822.94
2022-08-03T09:09:09.430Z,163852.56
2022-08-03T09:12:13.765Z,163872.88
2022-08-03T09:15:01.040Z,163818.84
2022-08-03T09:17:53.879Z,163790.53
2022-08-03T09:20:23.897Z,163713.69
2022-08-03T09:22:55.782Z,163742.00
2022-08-03T09:25:33.505Z,163789.22
2022-08-03T09:28:52.795Z,163843.09
2022-08-03T09:31:03.080Z,163867.41
2022-08-03T09:33:35.999Z,163932.19
2022-08-03T09:36:04.246Z,163968.56
2022-08-03T09:38:31.756Z,163948.34
2022-08-03T09:41:00.602Z,163934.84
2022-08-03T09:43:29.059Z,163934.84
2022-08-03T09:46:07.819Z,163911.94
2022-08-03T09:48:37.436Z,163843.09
2022-08-03T09:51:13.397Z,163826.94
2022-08-03T09:53:59.554Z,163852.56
2022-08-03T09:56:42.065Z,163875.53
2022-08-03T09:59:11.701Z,163938.91
2022-08-03T10:01:42.644Z,163947.00
2022-08-03T10:04:17.730Z,163953.75
2022-08-03T10:06:46.771Z,163947.00
2022-08-03T10:09:16.311Z,163965.91
2022-08-03T10:11:47.316Z,163940.25
2022-08-03T10:14:19.694Z,163952.41
2022-08-03T10:16:48.572Z,163987.47
2022-08-03T10:19:16.831Z,163876.88
2022-08-03T10:21:51.392Z,163911.94
2022-08-03T10:24:25.296Z,163982.06
2022-08-03T10:26:54.541Z,163938.91
2022-08-03T10:29:25.133Z,163833.69
2022-08-03T10:31:58.167Z,163821.53
2022-08-03T10:34:27.944Z,163844.50
2022-08-03T10:36:59.453Z,163833.69
2022-08-03T10:39:30.966Z,163806.72
2022-08-03T10:41:59.970Z,163708.28
2022-08-03T10:44:34.072Z,163697.50
2022-08-03T10:47:02.079Z,163604.50
2022-08-03T10:49:34.443Z,163611.22
2022-08-03T10:52:11.182Z,163613.91
2022-08-03T10:55:11.448Z,163592.34
2022-08-03T10:57:49.750Z,163527.63
2022-08-03T11:00:19.665Z,163530.34
2022-08-03T11:03:14.733Z,163580.22
2022-08-03T11:05:47.047Z,163611.22
2022-08-03T11:08:32.027Z,163617.97
2022-08-03T11:11:19.991Z,163611.22
2022-08-03T11:14:08.287Z,163623.38
2022-08-03T11:16:43.806Z,163578.88
2022-08-03T11:19:15.008Z,163538.47
2022-08-03T11:21:48.689Z,163547.91
2022-08-03T11:24:39.341Z,163589.69
2022-08-03T11:27:15.892Z,163675.91
2022-08-03T11:30:10.175Z,163677.25
2022-08-03T11:32:37.716Z,163636.81
2022-08-03T11:35:36.193Z,163643.56
2022-08-03T11:38:09.241Z,163682.66
2022-08-03T11:40:55.974Z,163657.03
2022-08-03T11:43:31.333Z,163657.03
2022-08-03T11:46:28.521Z,163719.09
2022-08-03T11:49:09.445Z,163744.72
2022-08-03T11:51:40.132Z,163731.25
2022-08-03T11:54:08.348Z,163738.00
2022-08-03T11:56:49.840Z,163731.25
2022-08-03T11:59:22.110Z,163799.97
2022-08-03T12:01:50.720Z,163856.59
2022-08-03T12:04:18.869Z,163883.63
2022-08-03T12:07:01.583Z,163911.94
2022-08-03T12:09:29.459Z,163924.09
2022-08-03T12:12:00.646Z,163893.03
2022-08-03T12:14:48.638Z,163851.25
2022-08-03T12:17:18.631Z,163818.84
2022-08-03T12:19:46.296Z,163808.03
2022-08-03T12:22:16.161Z,163774.38
2022-08-03T12:24:46.696Z,163754.16
2022-08-03T12:27:28.270Z,163754.16
2022-08-03T12:29:59.041Z,163793.22
2022-08-03T12:32:29.045Z,163856.59
2022-08-03T12:35:02.135Z,163886.28
2022-08-03T12:37:30.517Z,163893.03
2022-08-03T12:40:07.981Z,163874.19
2022-08-03T12:42:38.899Z,163863.34
2022-08-03T12:45:23.254Z,163867.41
2022-08-03T12:47:59.235Z,163875.53
2022-08-03T12:50:33.703Z,163878.22
2022-08-03T12:53:03.299Z,163897.09
2022-08-03T12:55:40.206Z,163895.78
2022-08-03T12:58:36.089Z,163856.59
2022-08-03T13:01:09.545Z,163889.03
2022-08-03T13:03:43.356Z,163906.53
2022-08-03T13:06:20.553Z,163938.91
2022-08-03T13:08:48.708Z,163964.50
2022-08-03T13:11:20.775Z,163924.09
2022-08-03T13:13:48.394Z,163872.88
2022-08-03T13:16:19.144Z,163849.84
2022-08-03T13:18:48.158Z,163836.34
2022-08-03T13:21:19.794Z,163835.03
2022-08-03T13:23:48.054Z,163829.63
2022-08-03T13:26:15.576Z,163826.94
2022-08-03T13:28:42.990Z,163832.34
2022-08-03T13:31:10.886Z,163862.00
2022-08-03T13:33:39.608Z,163902.50
2022-08-03T13:36:07.250Z,163936.19
2022-08-03T13:38:35.036Z,163936.19
2022-08-03T13:41:05.063Z,163972.66
2022-08-03T13:43:32.921Z,163978.00
2022-08-03T13:46:00.604Z,163986.09
2022-08-03T13:48:36.660Z,164018.47
2022-08-03T13:51:11.712Z,164029.28
2022-08-03T13:53:51.696Z,163986.09
2022-08-03T13:56:19.681Z,163961.84
2022-08-03T13:59:08.128Z,164006.31
2022-08-03T14:01:54.099Z,164013.06
2022-08-03T14:04:22.650Z,164034.69
2022-08-03T14:06:50.855Z,164045.50
2022-08-03T14:09:18.194Z,164056.28
2022-08-03T14:12:04.151Z,164064.34
2022-08-03T14:14:33.736Z,164031.97
2022-08-03T14:17:01.086Z,164023.88
2022-08-03T14:19:30.264Z,164010.38
2022-08-03T14:22:03.685Z,163984.75
2022-08-03T14:24:34.306Z,164009.06
2022-08-03T14:27:08.672Z,164029.28
2022-08-03T14:29:36.521Z,164034.69
2022-08-03T14:32:10.262Z,164036.03
2022-08-03T14:34:39.817Z,164060.34
2022-08-03T14:37:07.699Z,164076.50
2022-08-03T14:42:23.863Z,164048.19
2022-08-03T14:44:51.362Z,164046.84
2022-08-03T14:47:18.835Z,164075.19
2022-08-03T14:50:38.974Z,164094.06
2022-08-03T14:52:34.598Z,164054.94
2022-08-03T14:55:02.701Z,164042.78
2022-08-03T14:57:30.097Z,164065.75
2022-08-03T14:59:57.501Z,164064.34
2022-08-03T15:02:25.958Z,164045.50
2022-08-03T15:04:53.396Z,164038.78
2022-08-03T15:07:21.184Z,164054.94
2022-08-03T15:09:48.992Z,164065.75
2022-08-03T15:12:16.619Z,164067.09
2022-08-03T15:14:44.128Z,164044.16
2022-08-03T15:17:11.854Z,163987.47
2022-08-03T15:20:03.796Z,163987.47
2022-08-03T15:22:34.707Z,163986.09
2022-08-03T15:25:04.241Z,163998.25
2022-08-03T15:28:02.675Z,163996.91
2022-08-03T15:30:36.189Z,163996.91
2022-08-03T15:33:04.169Z,163991.50
2022-08-03T15:35:31.565Z,163996.91
2022-08-03T15:37:59.065Z,163930.84
2022-08-03T15:40:26.954Z,163937.56
2022-08-03T15:42:54.479Z,163929.50
2022-08-03T15:45:21.771Z,163890.38
2022-08-03T15:47:50.137Z,163901.19
2022-08-03T15:50:17.590Z,163843.09
2022-08-03T15:52:44.866Z,163872.88
2022-08-03T15:55:15.482Z,163855.25
2022-08-03T15:59:09.527Z,163868.78
2022-08-03T16:00:33.742Z,163847.16
2022-08-03T16:03:02.984Z,163835.03
2022-08-03T16:05:30.882Z,163804.03
2022-08-03T16:08:03.545Z,163818.84
2022-08-03T16:10:33.213Z,163844.50
2022-08-03T16:13:00.956Z,163872.88
2022-08-03T16:15:28.621Z,163889.03
2022-08-03T16:17:56.036Z,163903.84
2022-08-03T16:20:31.171Z,163894.44
2022-08-03T16:23:10.809Z,163891.72
2022-08-03T16:25:40.496Z,163887.69
2022-08-03T16:28:13.858Z,163898.44
2022-08-03T16:30:43.175Z,163879.59
2022-08-03T16:33:11.403Z,163902.50
2022-08-03T16:35:46.476Z,163907.88
2022-08-03T16:38:18.550Z,163899.78
2022-08-03T16:40:52.340Z,163844.50
2022-08-03T16:43:21.375Z,163836.34
2022-08-03T16:45:49.725Z,163840.44
2022-08-03T16:48:17.830Z,163840.44
2022-08-03T16:50:45.683Z,163824.25
2022-08-03T16:53:17.053Z,163813.47
2022-08-03T16:55:53.463Z,163809.44
2022-08-03T16:58:34.665Z,163793.22
2022-08-03T17:01:22.477Z,163781.13
2022-08-03T17:04:01.252Z,163740.66
2022-08-03T17:06:36.136Z,163700.16
2022-08-03T17:09:12.981Z,163698.81
2022-08-03T17:11:47.359Z,163665.13
2022-08-03T17:14:28.535Z,163646.28
2022-08-03T17:17:01.681Z,163617.97
2022-08-03T17:19:30.362Z,163568.13
2022-08-03T17:22:12.429Z,163541.16
2022-08-03T17:24:44.940Z,163503.38
2022-08-03T17:27:23.124Z,163444.06
2022-08-03T17:30:08.869Z,163409.03
2022-08-03T17:32:42.227Z,163293.16
2022-08-03T17:35:11.436Z,163262.22
2022-08-03T17:37:58.015Z,163256.81
2022-08-03T17:40:30.943Z,163243.34
2022-08-03T17:43:00.034Z,163227.19
2022-08-03T17:45:42.306Z,163198.91
2022-08-03T17:48:18.406Z,163155.78
2022-08-03T17:50:51.439Z,163139.59
2022-08-03T17:53:25.014Z,163087.09
2022-08-03T17:56:42.584Z,163045.38
2022-08-03T18:02:26.541Z,162940.31
2022-08-03T18:05:16.739Z,162875.72
2022-08-03T18:08:01.532Z,162824.59
2022-08-03T18:10:35.214Z,162785.56
2022-08-03T18:13:10.258Z,162747.84
2022-08-03T18:15:43.998Z,162695.41
2022-08-03T18:18:12.582Z,162642.97
2022-08-03T18:20:42.391Z,162585.03
2022-08-03T18:23:25.443Z,162564.91
2022-08-03T18:26:04.907Z,162536.66
2022-08-03T18:28:35.788Z,162498.97
2022-08-03T18:31:06.058Z,162460.00
2022-08-03T18:34:32.021Z,162422.38
2022-08-03T18:36:30.466Z,162353.75
2022-08-03T18:39:03.694Z,162340.31
2022-08-03T18:41:34.661Z,162293.25
2022-08-03T18:44:06.721Z,162256.97
2022-08-03T18:46:49.692Z,162232.78
2022-08-03T18:49:23.392Z,162200.53
2022-08-03T18:51:56.405Z,162168.25
2022-08-03T18:54:51.047Z,162102.38
2022-08-03T18:57:30.288Z,162066.09
2022-08-03T19:00:16.320Z,162029.84
2022-08-03T19:02:54.434Z,161953.22
2022-08-03T19:05:51.609Z,161904.91
2022-08-03T19:08:20.574Z,161886.09
2022-08-03T19:10:57.753Z,161868.63
2022-08-03T19:13:41.736Z,161855.22
2022-08-03T19:16:24.060Z,161813.59
2022-08-03T19:18:54.974Z,161790.75
2022-08-03T19:21:23.954Z,161774.66
2022-08-03T19:23:52.508Z,161751.84
2022-08-03T19:26:30.614Z,161751.84
2022-08-03T19:28:59.333Z,161754.50
2022-08-03T19:31:30.942Z,161703.44
2022-08-03T19:34:02.949Z,161696.72
2022-08-03T19:36:32.557Z,161668.56
2022-08-03T19:39:00.266Z,161673.94
2022-08-03T19:41:42.314Z,161669.88
2022-08-03T19:44:19.861Z,161640.38
2022-08-03T19:47:11.747Z,161641.69
2022-08-03T19:49:57.735Z,161625.59
2022-08-03T19:52:36.456Z,161604.13
2022-08-03T19:55:12.432Z,161596.09
2022-08-03T19:57:45.622Z,161588.03
2022-08-03T20:00:14.320Z,161577.28
2022-08-03T20:02:43.301Z,161569.25
2022-08-03T20:05:14.999Z,161558.53
2022-08-03T20:07:48.250Z,161546.44
2022-08-03T20:10:17.426Z,161515.59
2022-08-03T20:12:46.876Z,161534.34
2022-08-03T20:15:18.375Z,161508.88
2022-08-03T20:17:59.527Z,161504.84
2022-08-03T20:20:32.798Z,161482.00
2022-08-03T20:23:06.836Z,161453.81
2022-08-03T20:25:48.633Z,161447.09
2022-08-03T20:28:33.661Z,161426.97
2022-08-03T20:31:02.301Z,161416.28
2022-08-03T20:33:48.636Z,161408.19
2022-08-03T20:36:18.434Z,161392.09
2022-08-03T20:38:48.196Z,161367.97
2022-08-03T20:41:17.322Z,161359.94
2022-08-03T20:43:45.800Z,161362.59
2022-08-03T20:46:32.659Z,161362.59
2022-08-03T20:49:04.453Z,161351.88
2022-08-03T20:51:49.170Z,161341.13
2022-08-03T20:54:29.423Z,161333.09
2022-08-03T20:57:04.421Z,161298.22
2022-08-03T20:59:50.599Z,161302.25
2022-08-03T21:02:29.043Z,161302.25
2022-08-03T21:05:02.828Z,161276.78
2022-08-03T21:08:04.256Z,161180.16
2022-08-03T21:10:28.126Z,161247.28
2022-08-03T21:12:56.082Z,162995.56
2022-08-03T21:13:15.495Z,161232.47
2022-08-03T21:16:11.389Z,161240.56
2022-08-03T21:18:38.034Z,161229.75
2022-08-03T21:21:06.802Z,161217.72
2022-08-03T21:23:47.879Z,161197.63
2022-08-03T21:26:19.001Z,161204.31
2022-08-03T21:28:48.568Z,161200.28
2022-08-03T21:31:24.282Z,161185.53
2022-08-03T21:33:58.297Z,161190.91
2022-08-03T21:36:30.706Z,161193.56
2022-08-03T21:38:59.028Z,161173.44
2022-08-03T21:41:28.878Z,161169.47
2022-08-03T21:43:57.041Z,161158.72
2022-08-03T21:46:26.753Z,161150.66
2022-08-03T21:49:51.741Z,161135.94
2022-08-03T21:51:45.201Z,161123.84
2022-08-03T21:54:13.638Z,161131.88
2022-08-03T21:56:42.499Z,161118.53
2022-08-03T21:59:17.694Z,161118.53
2022-08-03T22:01:49.079Z,161198.94
2022-08-03T22:04:50.222Z,161220.41
2022-08-03T22:07:09.435Z,161236.53
2022-08-03T22:09:37.435Z,161274.09
2022-08-03T22:12:05.519Z,161296.88
2022-08-03T22:14:33.450Z,161290.19
2022-08-03T22:17:03.435Z,161279.44
2022-08-03T22:19:34.109Z,161266.00
2022-08-03T22:22:06.242Z,161306.25
2022-08-03T22:24:35.958Z,161304.94
2022-08-03T22:27:23.969Z,161292.84
2022-08-03T22:29:53.813Z,161287.47
2022-08-03T22:32:21.461Z,161315.63
2022-08-03T22:34:51.306Z,161330.38
2022-08-03T22:37:21.330Z,161358.56
2022-08-03T22:39:49.941Z,161358.56
2022-08-03T22:42:17.650Z,161384.06
2022-08-03T22:44:46.007Z,161396.13
2022-08-03T22:47:15.265Z,161396.13
2022-08-03T22:50:31.376Z,161416.28
2022-08-03T22:52:42.115Z,161424.31
2022-08-03T22:55:12.183Z,161444.44
2022-08-03T22:57:55.669Z,161453.81
2022-08-03T23:00:24.886Z,161457.81
2022-08-03T23:02:55.018Z,161448.44
2022-08-03T23:06:00.651Z,161492.75
2022-08-03T23:08:22.499Z,161506.16
2022-08-03T23:10:52.467Z,161514.22
2022-08-03T23:13:26.025Z,161518.25
2022-08-03T23:15:59.458Z,161516.94
2022-08-03T23:18:36.971Z,161553.16
2022-08-03T23:21:11.779Z,161555.81
2022-08-03T23:23:44.385Z,161563.84
2022-08-03T23:26:14.344Z,161573.28
2022-08-03T23:28:45.893Z,161590.69
2022-08-03T23:31:15.270Z,161589.38
2022-08-03T23:33:45.037Z,161601.47
2022-08-03T23:36:30.282Z,161618.88
2022-08-03T23:39:02.264Z,161647.06
2022-08-03T23:41:30.994Z,161647.06
2022-08-03T23:43:59.757Z,161659.16
2022-08-03T23:46:27.935Z,161669.88
2022-08-03T23:48:56.688Z,161668.56
2022-08-03T23:51:24.311Z,161698.06
2022-08-03T23:54:00.053Z,161692.75
2022-08-03T23:56:41.198Z,161681.97
2022-08-03T23:59:24.642Z,161677.97
